createdAt,value
2022-10-07T00:00:18.220Z,89.62
2022-10-07T00:01:18.261Z,89.59
2022-10-07T00:02:18.234Z,89.59
2022-10-07T00:03:18.190Z,89.07
2022-10-07T00:04:18.190Z,89.07
2022-10-07T00:05:18.181Z,89.59
2022-10-07T00:06:18.185Z,90.35
2022-10-07T00:07:18.167Z,89.79
2022-10-07T00:08:18.166Z,89.22
2022-10-07T00:09:18.158Z,89.17
2022-10-07T00:10:18.146Z,89.62
2022-10-07T00:11:18.164Z,88.55
2022-10-07T00:12:18.139Z,88.49
2022-10-07T00:13:18.125Z,89.11
2022-10-07T00:14:18.117Z,89.01
2022-10-07T00:15:18.128Z,89.62
2022-10-07T00:16:18.204Z,89.62
2022-10-07T00:17:18.098Z,89.62
2022-10-07T00:18:18.098Z,90.29
2022-10-07T00:19:18.081Z,91.22
2022-10-07T00:20:18.090Z,91.74
2022-10-07T00:21:18.099Z,90.56
2022-10-07T00:22:18.061Z,90.25
2022-10-07T00:23:18.059Z,91.22
2022-10-07T00:24:18.062Z,91.80
2022-10-07T00:25:18.060Z,91.22
2022-10-07T00:26:18.064Z,90.39
2022-10-07T00:27:18.037Z,90.08
2022-10-07T00:28:18.089Z,90.08
2022-10-07T00:29:18.030Z,90.29
2022-10-07T00:30:18.018Z,89.77
2022-10-07T00:31:18.092Z,90.19
2022-10-07T00:32:18.018Z,89.98
2022-10-07T00:33:18.000Z,89.98
2022-10-07T00:34:18.010Z,89.98
2022-10-07T00:35:17.989Z,90.08
2022-10-07T00:36:17.977Z,89.56
2022-10-07T00:37:18.096Z,89.56
2022-10-07T00:38:17.984Z,88.94
2022-10-07T00:39:17.990Z,89.25
2022-10-07T00:40:17.965Z,89.36
2022-10-07T00:41:17.953Z,89.25
2022-10-07T00:42:18.020Z,89.50
2022-10-07T00:43:17.953Z,89.15
2022-10-07T00:44:17.945Z,89.25
2022-10-07T00:45:18.937Z,89.67
2022-10-07T00:46:17.986Z,89.71
2022-10-07T00:47:17.921Z,90.74
2022-10-07T00:48:17.926Z,90.84
2022-10-07T00:49:17.908Z,90.53
2022-10-07T00:50:17.909Z,90.74
2022-10-07T00:51:17.901Z,90.64
2022-10-07T00:52:17.890Z,90.23
2022-10-07T00:53:17.888Z,90.74
2022-10-07T00:54:17.883Z,91.26
2022-10-07T00:55:17.901Z,90.84
2022-10-07T00:56:17.866Z,90.74
2022-10-07T00:57:17.865Z,90.23
2022-10-07T00:58:17.852Z,90.33
2022-10-07T00:59:17.849Z,90.02
2022-10-07T01:00:17.853Z,90.33
2022-10-07T01:01:17.906Z,90.23
2022-10-07T01:02:17.909Z,90.53
2022-10-07T01:03:17.832Z,91.16
2022-10-07T01:04:17.821Z,91.36
2022-10-07T01:05:17.809Z,91.36
2022-10-07T01:06:17.808Z,91.16
2022-10-07T01:07:17.804Z,90.53
2022-10-07T01:08:17.795Z,90.19
2022-10-07T01:09:17.793Z,89.81
2022-10-07T01:10:17.797Z,89.09
2022-10-07T01:11:17.768Z,89.19
2022-10-07T01:12:17.770Z,88.98
2022-10-07T01:13:17.761Z,89.29
2022-10-07T01:14:17.748Z,89.23
2022-10-07T01:15:17.761Z,89.61
2022-10-07T01:16:17.752Z,88.61
2022-10-07T01:17:17.716Z,89.34
2022-10-07T01:18:17.730Z,89.44
2022-10-07T01:19:17.712Z,88.71
2022-10-07T01:20:17.717Z,89.03
2022-10-07T01:21:17.705Z,88.92
2022-10-07T01:22:17.706Z,89.65
2022-10-07T01:23:17.697Z,89.58
2022-10-07T01:24:17.692Z,89.54
2022-10-07T01:25:17.685Z,89.65
2022-10-07T01:26:17.684Z,89.65
2022-10-07T01:27:17.669Z,89.58
2022-10-07T01:28:17.794Z,89.54
2022-10-07T01:29:17.652Z,89.79
2022-10-07T01:30:17.649Z,89.75
2022-10-07T01:31:17.712Z,88.86
2022-10-07T01:32:17.637Z,89.58
2022-10-07T01:33:17.629Z,89.58
2022-10-07T01:34:17.617Z,89.58
2022-10-07T01:35:17.617Z,89.07
2022-10-07T01:36:17.624Z,89.38
2022-10-07T01:37:17.598Z,88.96
2022-10-07T01:38:17.593Z,88.96
2022-10-07T01:39:17.595Z,89.38
2022-10-07T01:40:17.585Z,89.11
2022-10-07T01:41:17.593Z,88.79
2022-10-07T01:42:17.565Z,89.83
2022-10-07T01:43:17.557Z,89.21
2022-10-07T01:44:17.554Z,88.59
2022-10-07T01:45:17.549Z,88.90
2022-10-07T01:46:17.620Z,89.31
2022-10-07T01:47:17.545Z,89.83
2022-10-07T01:48:17.529Z,89.83
2022-10-07T01:49:17.521Z,90.45
2022-10-07T01:50:17.517Z,90.45
2022-10-07T01:51:17.509Z,90.50
2022-10-07T01:52:17.514Z,89.94
2022-10-07T01:53:17.501Z,89.83
2022-10-07T01:54:17.501Z,90.29
2022-10-07T01:55:17.486Z,90.81
2022-10-07T01:56:17.478Z,90.66
2022-10-07T01:57:17.474Z,90.77
2022-10-07T01:58:17.466Z,90.50
2022-10-07T01:59:17.496Z,90.29
2022-10-07T02:00:17.452Z,91.08
2022-10-07T02:01:17.518Z,90.81
2022-10-07T02:02:17.432Z,90.91
2022-10-07T02:03:17.459Z,90.81
2022-10-07T02:04:17.441Z,90.70
2022-10-07T02:05:17.429Z,91.02
2022-10-07T02:06:17.411Z,90.60
2022-10-07T02:07:17.407Z,90.50
2022-10-07T02:08:17.396Z,90.50
2022-10-07T02:09:17.392Z,90.60
2022-10-07T02:10:17.401Z,90.95
2022-10-07T02:11:17.377Z,90.70
2022-10-07T02:12:17.372Z,91.12
2022-10-07T02:13:17.365Z,90.60
2022-10-07T02:14:17.364Z,90.60
2022-10-07T02:15:17.357Z,90.60
2022-10-07T02:16:17.470Z,90.91
2022-10-07T02:17:17.348Z,90.39
2022-10-07T02:18:17.353Z,90.19
2022-10-07T02:19:17.332Z,90.50
2022-10-07T02:20:17.320Z,90.70
2022-10-07T02:21:17.317Z,90.60
2022-10-07T02:22:17.304Z,90.39
2022-10-07T02:23:17.322Z,90.70
2022-10-07T02:24:17.301Z,91.37
2022-10-07T02:25:17.293Z,91.95
2022-10-07T02:26:17.284Z,91.33
2022-10-07T02:27:17.288Z,91.33
2022-10-07T02:28:17.397Z,91.22
2022-10-07T02:29:17.262Z,90.81
2022-10-07T02:30:17.256Z,90.50
2022-10-07T02:31:17.268Z,90.33
2022-10-07T02:32:17.263Z,90.70
2022-10-07T02:33:17.248Z,90.44
2022-10-07T02:34:19.956Z,90.85
2022-10-07T02:35:18.219Z,90.44
2022-10-07T02:36:17.210Z,90.64
2022-10-07T02:37:17.214Z,90.60
2022-10-07T02:38:17.208Z,90.19
2022-10-07T02:39:17.201Z,90.54
2022-10-07T02:40:17.267Z,90.12
2022-10-07T02:41:17.378Z,90.39
2022-10-07T02:42:17.177Z,90.12
2022-10-07T02:43:17.186Z,89.92
2022-10-07T02:44:17.161Z,89.92
2022-10-07T02:45:17.149Z,90.02
2022-10-07T02:46:17.211Z,90.02
2022-10-07T02:47:17.147Z,90.02
2022-10-07T02:48:17.149Z,89.92
2022-10-07T02:49:17.128Z,89.92
2022-10-07T02:50:17.120Z,90.54
2022-10-07T02:51:20.790Z,92.30
2022-10-07T02:52:18.106Z,92.30
2022-10-07T02:53:17.122Z,93.02
2022-10-07T02:54:17.092Z,92.93
2022-10-07T02:55:17.094Z,92.20
2022-10-07T02:56:17.089Z,91.89
2022-10-07T02:57:17.076Z,91.47
2022-10-07T02:58:17.069Z,91.06
2022-10-07T02:59:17.098Z,90.75
2022-10-07T03:00:17.049Z,90.75
2022-10-07T03:01:17.127Z,90.64
2022-10-07T03:02:17.052Z,90.75
2022-10-07T03:03:17.069Z,90.95
2022-10-07T03:04:17.041Z,92.10
2022-10-07T03:05:17.033Z,90.79
2022-10-07T03:06:17.249Z,91.62
2022-10-07T03:07:17.029Z,91.83
2022-10-07T03:08:17.014Z,92.03
2022-10-07T03:09:17.005Z,91.78
2022-10-07T03:10:16.997Z,91.83
2022-10-07T03:11:16.997Z,91.83
2022-10-07T03:12:16.982Z,92.14
2022-10-07T03:13:16.977Z,91.83
2022-10-07T03:14:16.969Z,92.14
2022-10-07T03:15:16.960Z,92.30
2022-10-07T03:16:17.007Z,92.20
2022-10-07T03:17:16.944Z,92.20
2022-10-07T03:18:16.949Z,92.24
2022-10-07T03:19:16.936Z,91.89
2022-10-07T03:20:16.933Z,92.20
2022-10-07T03:21:16.942Z,92.82
2022-10-07T03:22:16.949Z,93.38
2022-10-07T03:23:16.908Z,92.72
2022-10-07T03:24:16.912Z,92.14
2022-10-07T03:25:16.892Z,92.03
2022-10-07T03:26:16.897Z,92.35
2022-10-07T03:27:16.896Z,91.83
2022-10-07T03:28:16.903Z,91.83
2022-10-07T03:29:16.872Z,91.72
2022-10-07T03:30:19.233Z,91.93
2022-10-07T03:31:16.892Z,92.03
2022-10-07T03:32:16.874Z,92.14
2022-10-07T03:33:16.852Z,91.52
2022-10-07T03:34:16.842Z,91.00
2022-10-07T03:35:16.828Z,90.37
2022-10-07T03:36:16.824Z,90.58
2022-10-07T03:37:16.837Z,90.48
2022-10-07T03:38:16.816Z,91.00
2022-10-07T03:39:17.805Z,90.83
2022-10-07T03:40:16.800Z,90.83
2022-10-07T03:41:16.785Z,91.03
2022-10-07T03:42:16.784Z,91.45
2022-10-07T03:43:16.794Z,91.66
2022-10-07T03:44:16.778Z,91.97
2022-10-07T03:45:16.768Z,92.49
2022-10-07T03:46:16.831Z,92.07
2022-10-07T03:47:16.757Z,91.66
2022-10-07T03:48:16.764Z,91.97
2022-10-07T03:49:16.737Z,91.76
2022-10-07T03:50:16.734Z,91.86
2022-10-07T03:51:16.728Z,92.07
2022-10-07T03:52:16.713Z,92.18
2022-10-07T03:53:16.735Z,91.55
2022-10-07T03:54:16.728Z,91.55
2022-10-07T03:55:16.703Z,90.89
2022-10-07T03:56:16.709Z,90.83
2022-10-07T03:57:16.699Z,91.10
2022-10-07T03:58:16.685Z,92.03
2022-10-07T03:59:16.693Z,92.35
2022-10-07T04:00:16.677Z,93.07
2022-10-07T04:01:16.832Z,93.80
2022-10-07T04:02:16.657Z,94.63
2022-10-07T04:03:16.700Z,95.15
2022-10-07T04:04:16.645Z,94.58
2022-10-07T04:05:16.636Z,95.10
2022-10-07T04:06:16.629Z,94.58
2022-10-07T04:07:16.616Z,94.79
2022-10-07T04:08:16.633Z,95.20
2022-10-07T04:09:16.637Z,96.14
2022-10-07T04:10:16.600Z,96.55
2022-10-07T04:11:16.604Z,97.33
2022-10-07T04:12:16.594Z,97.02
2022-10-07T04:13:16.591Z,97.74
2022-10-07T04:14:16.588Z,98.05
2022-10-07T04:15:16.599Z,98.57
2022-10-07T04:16:16.631Z,98.47
2022-10-07T04:17:16.559Z,98.36
2022-10-07T04:18:16.558Z,98.68
2022-10-07T04:19:16.573Z,98.68
2022-10-07T04:20:16.554Z,98.47
2022-10-07T04:21:16.536Z,99.09
2022-10-07T04:22:16.522Z,99.44
2022-10-07T04:23:16.534Z,99.34
2022-10-07T04:24:16.538Z,99.99
2022-10-07T04:25:16.508Z,99.99
2022-10-07T04:26:16.498Z,99.86
2022-10-07T04:27:39.715Z,99.99
2022-10-07T04:28:18.555Z,99.99
2022-10-07T04:29:16.481Z,99.99
2022-10-07T04:30:16.492Z,99.99
2022-10-07T04:31:16.522Z,99.99
2022-10-07T04:32:16.456Z,99.99
2022-10-07T04:33:16.453Z,99.99
2022-10-07T04:34:16.448Z,99.99
2022-10-07T04:35:16.460Z,99.99
2022-10-07T04:36:16.440Z,99.99
2022-10-07T04:37:16.432Z,99.99
2022-10-07T04:38:16.424Z,99.99
2022-10-07T04:39:16.412Z,99.04
2022-10-07T04:40:16.425Z,98.94
2022-10-07T04:41:16.404Z,98.52
2022-10-07T04:42:16.394Z,98.63
2022-10-07T04:43:16.392Z,97.43
2022-10-07T04:44:16.373Z,97.12
2022-10-07T04:45:16.388Z,96.50
2022-10-07T04:46:16.446Z,96.14
2022-10-07T04:47:16.417Z,96.29
2022-10-07T04:48:16.344Z,96.08
2022-10-07T04:49:16.348Z,95.98
2022-10-07T04:50:16.339Z,95.77
2022-10-07T04:51:16.348Z,95.36
2022-10-07T04:52:16.330Z,95.51
2022-10-07T04:53:16.320Z,95.36
2022-10-07T04:54:16.324Z,95.20
2022-10-07T04:55:16.320Z,95.04
2022-10-07T04:56:16.320Z,94.94
2022-10-07T04:57:16.300Z,94.63
2022-10-07T04:58:16.291Z,94.84
2022-10-07T04:59:16.280Z,94.84
2022-10-07T05:00:16.276Z,94.63
2022-10-07T05:01:16.351Z,94.53
2022-10-07T05:02:16.369Z,93.90
2022-10-07T05:03:16.263Z,94.11
2022-10-07T05:04:16.259Z,93.80
2022-10-07T05:05:16.235Z,93.80
2022-10-07T05:06:16.240Z,93.70
2022-10-07T05:07:16.247Z,93.59
2022-10-07T05:08:16.211Z,92.97
2022-10-07T05:09:16.223Z,93.28
2022-10-07T05:10:16.220Z,93.49
2022-10-07T05:11:16.210Z,93.28
2022-10-07T05:12:16.220Z,93.18
2022-10-07T05:13:16.202Z,93.70
2022-10-07T05:14:16.227Z,93.70
2022-10-07T05:15:16.179Z,94.01
2022-10-07T05:16:16.311Z,93.90
2022-10-07T05:17:16.179Z,93.95
2022-10-07T05:18:16.163Z,94.32
2022-10-07T05:19:16.155Z,94.32
2022-10-07T05:20:16.151Z,94.11
2022-10-07T05:21:16.144Z,94.21
2022-10-07T05:22:16.143Z,94.42
2022-10-07T05:23:16.123Z,94.21
2022-10-07T05:24:16.124Z,94.53
2022-10-07T05:25:16.113Z,94.63
2022-10-07T05:26:16.111Z,94.42
2022-10-07T05:27:16.100Z,93.90
2022-10-07T05:28:16.153Z,94.11
2022-10-07T05:29:16.091Z,93.59
2022-10-07T05:30:16.082Z,93.18
2022-10-07T05:31:16.143Z,93.38
2022-10-07T05:32:16.079Z,93.28
2022-10-07T05:33:16.064Z,92.24
2022-10-07T05:34:16.067Z,92.45
2022-10-07T05:35:16.047Z,92.24
2022-10-07T05:36:16.039Z,92.55
2022-10-07T05:37:16.028Z,92.76
2022-10-07T05:38:16.043Z,92.55
2022-10-07T05:39:16.024Z,92.55
2022-10-07T05:40:16.015Z,92.35
2022-10-07T05:41:16.011Z,92.24
2022-10-07T05:42:16.003Z,93.28
2022-10-07T05:43:16.030Z,93.49
2022-10-07T05:44:16.007Z,93.90
2022-10-07T05:45:15.979Z,94.11
2022-10-07T05:46:16.089Z,94.01
2022-10-07T05:47:15.975Z,94.01
2022-10-07T05:48:15.995Z,94.27
2022-10-07T05:49:15.955Z,95.04
2022-10-07T05:50:15.957Z,94.79
2022-10-07T05:51:15.939Z,95.15
2022-10-07T05:52:15.945Z,95.00
2022-10-07T05:53:16.016Z,95.46
2022-10-07T05:54:15.927Z,95.46
2022-10-07T05:55:15.936Z,95.67
2022-10-07T05:56:15.915Z,96.39
2022-10-07T05:57:15.908Z,97.43
2022-10-07T05:58:15.899Z,96.81
2022-10-07T05:59:15.907Z,97.16
2022-10-07T06:00:15.907Z,97.43
2022-10-07T06:01:15.879Z,97.64
2022-10-07T06:02:16.095Z,97.95
2022-10-07T06:03:16.004Z,97.43
2022-10-07T06:04:15.875Z,97.38
2022-10-07T06:05:15.859Z,97.17
2022-10-07T06:06:15.851Z,97.07
2022-10-07T06:07:20.182Z,97.28
2022-10-07T06:08:17.839Z,97.44
2022-10-07T06:09:15.870Z,96.72
2022-10-07T06:10:15.824Z,97.24
2022-10-07T06:11:15.815Z,96.36
2022-10-07T06:12:15.799Z,95.95
2022-10-07T06:13:15.804Z,95.64
2022-10-07T06:14:15.834Z,95.22
2022-10-07T06:15:15.819Z,94.45
2022-10-07T06:16:15.839Z,94.35
2022-10-07T06:17:15.779Z,93.93
2022-10-07T06:18:15.764Z,92.90
2022-10-07T06:19:15.798Z,93.00
2022-10-07T06:20:15.760Z,92.59
2022-10-07T06:21:15.743Z,92.59
2022-10-07T06:22:15.745Z,92.28
2022-10-07T06:23:15.735Z,92.59
2022-10-07T06:24:15.723Z,92.55
2022-10-07T06:25:15.731Z,92.65
2022-10-07T06:26:15.715Z,92.30
2022-10-07T06:27:15.705Z,92.19
2022-10-07T06:28:15.738Z,92.30
2022-10-07T06:29:15.698Z,92.30
2022-10-07T06:30:15.699Z,91.63
2022-10-07T06:31:15.741Z,91.53
2022-10-07T06:32:15.676Z,91.42
2022-10-07T06:33:15.674Z,90.53
2022-10-07T06:34:15.667Z,91.61
2022-10-07T06:35:15.685Z,92.03
2022-10-07T06:36:15.654Z,93.10
2022-10-07T06:37:15.646Z,93.52
2022-10-07T06:38:15.654Z,93.83
2022-10-07T06:39:15.630Z,94.14
2022-10-07T06:40:15.639Z,94.39
2022-10-07T06:41:15.651Z,94.87
2022-10-07T06:42:15.619Z,95.74
2022-10-07T06:43:15.612Z,95.74
2022-10-07T06:44:15.610Z,96.05
2022-10-07T06:45:15.588Z,96.11
2022-10-07T06:46:15.646Z,95.59
2022-10-07T06:47:16.591Z,96.11
2022-10-07T06:48:15.575Z,95.59
2022-10-07T06:49:15.570Z,95.59
2022-10-07T06:50:15.558Z,95.59
2022-10-07T06:51:15.563Z,95.86
2022-10-07T06:52:15.548Z,95.61
2022-10-07T06:53:15.544Z,95.09
2022-10-07T06:54:15.530Z,95.40
2022-10-07T06:55:15.526Z,95.29
2022-10-07T06:56:15.528Z,94.84
2022-10-07T06:57:43.619Z,94.94
2022-10-07T06:58:17.512Z,94.32
2022-10-07T06:59:15.507Z,94.07
2022-10-07T07:00:15.556Z,94.54
2022-10-07T07:01:15.523Z,99.99
2022-10-07T07:02:15.506Z,99.99
2022-10-07T07:03:15.491Z,99.99
2022-10-07T07:04:15.476Z,99.99
2022-10-07T07:05:15.476Z,98.12
2022-10-07T07:06:15.463Z,90.82
2022-10-07T07:07:15.466Z,76.13
2022-10-07T07:08:15.450Z,75.69
2022-10-07T07:09:15.442Z,76.58
2022-10-07T07:10:15.440Z,77.09
2022-10-07T07:11:15.419Z,76.92
2022-10-07T07:12:15.439Z,78.46
2022-10-07T07:13:15.407Z,77.44
2022-10-07T07:14:15.399Z,78.63
2022-10-07T07:15:15.406Z,77.06
2022-10-07T07:16:15.468Z,76.89
2022-10-07T07:17:15.398Z,76.78
2022-10-07T07:18:15.390Z,78.70
2022-10-07T07:19:15.368Z,77.67
2022-10-07T07:20:15.361Z,77.36
2022-10-07T07:21:15.359Z,76.75
2022-10-07T07:22:15.367Z,77.16
2022-10-07T07:23:15.346Z,77.47
2022-10-07T07:24:15.334Z,77.54
2022-10-07T07:25:15.327Z,78.29
2022-10-07T07:26:15.325Z,79.36
2022-10-07T07:27:15.405Z,80.90
2022-10-07T07:28:15.488Z,80.28
2022-10-07T07:29:15.309Z,80.55
2022-10-07T07:30:15.302Z,80.99
2022-10-07T07:31:15.360Z,79.31
2022-10-07T07:32:15.285Z,78.05
2022-10-07T07:33:15.290Z,77.29
2022-10-07T07:34:15.275Z,76.50
2022-10-07T07:35:15.263Z,75.27
2022-10-07T07:36:15.262Z,76.64
2022-10-07T07:37:15.253Z,73.94
2022-10-07T07:38:15.274Z,73.74
2022-10-07T07:39:15.245Z,70.85
2022-10-07T07:40:15.234Z,71.67
2022-10-07T07:41:15.246Z,71.33
2022-10-07T07:42:15.242Z,71.67
2022-10-07T07:43:15.238Z,70.86
2022-10-07T07:44:15.215Z,67.24
2022-10-07T07:45:15.218Z,66.97
2022-10-07T07:46:15.226Z,64.81
2022-10-07T07:47:15.198Z,64.20
2022-10-07T07:48:15.190Z,61.87
2022-10-07T07:49:15.192Z,62.51
2022-10-07T07:50:15.183Z,63.24
2022-10-07T07:51:15.162Z,64.09
2022-10-07T07:52:15.151Z,64.59
2022-10-07T07:53:15.142Z,62.90
2022-10-07T07:54:15.150Z,64.36
2022-10-07T07:55:15.139Z,62.46
2022-10-07T07:56:15.123Z,63.40
2022-10-07T07:57:15.137Z,64.06
2022-10-07T07:58:15.126Z,62.43
2022-10-07T07:59:15.114Z,61.79
2022-10-07T08:00:15.096Z,61.20
2022-10-07T08:01:15.137Z,64.55
2022-10-07T08:02:15.188Z,58.85
2022-10-07T08:03:15.083Z,57.28
2022-10-07T08:04:15.070Z,53.67
2022-10-07T08:05:16.370Z,56.82
2022-10-07T08:06:15.057Z,52.57
2022-10-07T08:07:15.054Z,51.04
2022-10-07T08:08:15.054Z,50.73
2022-10-07T08:09:15.038Z,50.01
2022-10-07T08:10:15.021Z,49.40
2022-10-07T08:11:15.013Z,48.22
2022-10-07T08:12:15.026Z,47.80
2022-10-07T08:13:15.019Z,49.65
2022-10-07T08:14:14.997Z,49.48
2022-10-07T08:15:14.999Z,49.27
2022-10-07T08:16:15.087Z,50.20
2022-10-07T08:17:14.978Z,50.18
2022-10-07T08:18:14.985Z,53.60
2022-10-07T08:19:14.959Z,52.32
2022-10-07T08:20:14.945Z,49.13
2022-10-07T08:21:14.954Z,46.98
2022-10-07T08:22:14.946Z,47.86
2022-10-07T08:23:14.978Z,45.94
2022-10-07T08:24:14.957Z,45.54
2022-10-07T08:25:14.927Z,44.98
2022-10-07T08:26:14.922Z,47.88
2022-10-07T08:27:14.913Z,47.66
2022-10-07T08:28:14.973Z,45.34
2022-10-07T08:29:14.903Z,45.81
2022-10-07T08:30:14.963Z,44.82
2022-10-07T08:31:14.935Z,46.01
2022-10-07T08:32:14.890Z,43.63
2022-10-07T08:33:14.926Z,44.93
2022-10-07T08:34:14.878Z,46.54
2022-10-07T08:35:14.866Z,46.72
2022-10-07T08:36:14.866Z,45.00
2022-10-07T08:37:14.858Z,44.37
2022-10-07T08:38:14.853Z,43.03
2022-10-07T08:39:14.852Z,43.77
2022-10-07T08:40:14.838Z,41.00
2022-10-07T08:41:14.831Z,42.40
2022-10-07T08:42:14.836Z,45.00
2022-10-07T08:43:14.818Z,45.50
2022-10-07T08:44:16.959Z,44.35
2022-10-07T08:45:15.809Z,42.93
2022-10-07T08:46:14.857Z,43.69
2022-10-07T08:47:14.783Z,42.35
2022-10-07T08:48:14.793Z,40.16
2022-10-07T08:49:14.790Z,42.29
2022-10-07T08:50:19.187Z,41.19
2022-10-07T08:51:16.798Z,42.49
2022-10-07T08:52:14.754Z,41.96
2022-10-07T08:53:14.758Z,40.52
2022-10-07T08:54:14.750Z,41.30
2022-10-07T08:55:14.746Z,41.53
2022-10-07T08:56:14.723Z,41.50
2022-10-07T08:57:14.747Z,38.17
2022-10-07T08:58:14.722Z,36.35
2022-10-07T08:59:14.729Z,35.73
2022-10-07T09:00:14.707Z,35.44
2022-10-07T09:01:14.740Z,37.41
2022-10-07T09:02:14.775Z,36.69
2022-10-07T09:03:14.682Z,35.19
2022-10-07T09:04:14.692Z,34.28
2022-10-07T09:05:14.690Z,32.80
2022-10-07T09:06:14.672Z,33.69
2022-10-07T09:07:14.683Z,34.50
2022-10-07T09:08:14.664Z,35.70
2022-10-07T09:09:14.654Z,33.52
2022-10-07T09:10:14.647Z,34.71
2022-10-07T09:11:14.642Z,34.61
2022-10-07T09:12:14.646Z,36.31
2022-10-07T09:13:14.634Z,34.01
2022-10-07T09:14:14.630Z,35.42
2022-10-07T09:15:14.639Z,36.31
2022-10-07T09:16:14.689Z,35.38
2022-10-07T09:17:14.628Z,34.31
2022-10-07T09:18:14.611Z,36.31
2022-10-07T09:19:14.594Z,34.46
2022-10-07T09:20:15.598Z,36.18
2022-10-07T09:21:14.578Z,38.84
2022-10-07T09:22:14.594Z,35.82
2022-10-07T09:23:14.578Z,38.93
2022-10-07T09:24:14.553Z,38.88
2022-10-07T09:25:14.567Z,36.54
2022-10-07T09:26:14.571Z,36.29
2022-10-07T09:27:14.550Z,35.11
2022-10-07T09:28:14.589Z,35.17
2022-10-07T09:29:14.535Z,33.62
2022-10-07T09:30:14.527Z,34.13
2022-10-07T09:31:14.597Z,35.12
2022-10-07T09:32:14.529Z,35.46
2022-10-07T09:33:14.535Z,36.94
2022-10-07T09:34:14.514Z,36.13
2022-10-07T09:35:14.498Z,35.22
2022-10-07T09:36:14.498Z,36.18
2022-10-07T09:37:14.494Z,36.11
2022-10-07T09:38:14.494Z,32.35
2022-10-07T09:39:14.482Z,32.67
2022-10-07T09:40:14.478Z,34.18
2022-10-07T09:41:14.483Z,34.22
2022-10-07T09:42:14.520Z,33.82
2022-10-07T09:43:14.461Z,36.31
2022-10-07T09:44:14.572Z,35.11
2022-10-07T09:45:14.445Z,34.39
2022-10-07T09:46:14.479Z,34.18
2022-10-07T09:47:14.482Z,33.77
2022-10-07T09:48:14.430Z,32.78
2022-10-07T09:49:14.434Z,33.58
2022-10-07T09:50:14.422Z,34.27
2022-10-07T09:51:14.441Z,33.67
2022-10-07T09:52:14.422Z,33.80
2022-10-07T09:53:14.419Z,34.22
2022-10-07T09:54:14.413Z,35.53
2022-10-07T09:55:14.397Z,35.34
2022-10-07T09:56:14.387Z,36.35
2022-10-07T09:57:18.786Z,36.16
2022-10-07T09:58:15.390Z,36.94
2022-10-07T09:59:14.370Z,35.14
2022-10-07T10:00:14.363Z,36.11
2022-10-07T10:01:14.358Z,35.40
2022-10-07T10:02:14.430Z,35.61
2022-10-07T10:03:14.373Z,35.12
2022-10-07T10:04:14.359Z,36.96
2022-10-07T10:05:14.333Z,36.90
2022-10-07T10:06:14.346Z,37.09
2022-10-07T10:07:14.330Z,37.69
2022-10-07T10:08:14.332Z,37.86
2022-10-07T10:09:18.170Z,39.21
2022-10-07T10:10:16.321Z,38.68
2022-10-07T10:11:14.313Z,36.56
2022-10-07T10:12:14.305Z,38.38
2022-10-07T10:13:14.297Z,36.90
2022-10-07T10:14:14.306Z,38.18
2022-10-07T10:15:14.312Z,38.10
2022-10-07T10:16:14.420Z,38.18
2022-10-07T10:17:14.302Z,37.69
2022-10-07T10:18:14.271Z,37.75
2022-10-07T10:19:14.270Z,36.05
2022-10-07T10:20:14.279Z,36.24
2022-10-07T10:21:14.256Z,38.79
2022-10-07T10:22:14.250Z,37.85
2022-10-07T10:23:14.241Z,37.93
2022-10-07T10:24:14.240Z,36.84
2022-10-07T10:25:14.230Z,37.05
2022-10-07T10:26:14.241Z,36.11
2022-10-07T10:27:14.226Z,36.65
2022-10-07T10:28:14.282Z,34.18
2022-10-07T10:29:14.210Z,36.51
2022-10-07T10:30:14.242Z,36.35
2022-10-07T10:31:14.278Z,37.71
2022-10-07T10:32:14.203Z,35.38
2022-10-07T10:33:14.210Z,34.18
2022-10-07T10:34:14.234Z,34.46
2022-10-07T10:35:14.182Z,34.46
2022-10-07T10:36:14.197Z,33.36
2022-10-07T10:37:14.745Z,35.07
2022-10-07T10:38:15.173Z,35.14
2022-10-07T10:39:14.153Z,34.10
2022-10-07T10:40:14.144Z,32.57
2022-10-07T10:41:15.173Z,32.20
2022-10-07T10:42:14.142Z,31.87
2022-10-07T10:43:14.147Z,30.77
2022-10-07T10:44:14.129Z,30.87
2022-10-07T10:45:14.134Z,30.85
2022-10-07T10:46:14.177Z,31.23
2022-10-07T10:47:14.128Z,30.60
2022-10-07T10:48:14.115Z,30.10
2022-10-07T10:49:14.101Z,28.97
2022-10-07T10:50:14.097Z,28.02
2022-10-07T10:51:14.097Z,30.18
2022-10-07T10:52:14.102Z,31.51
2022-10-07T10:53:14.085Z,31.67
2022-10-07T10:54:14.090Z,31.46
2022-10-07T10:55:14.089Z,30.88
2022-10-07T10:56:14.080Z,31.24
2022-10-07T10:57:14.073Z,33.23
2022-10-07T10:58:14.056Z,33.22
2022-10-07T10:59:14.068Z,32.42
2022-10-07T11:00:14.073Z,32.32
2022-10-07T11:01:14.048Z,32.41
2022-10-07T11:02:14.098Z,32.41
2022-10-07T11:03:14.098Z,32.07
2022-10-07T11:04:14.032Z,30.77
2022-10-07T11:05:14.049Z,31.23
2022-10-07T11:06:16.497Z,29.63
2022-10-07T11:07:14.020Z,29.62
2022-10-07T11:08:14.034Z,29.72
2022-10-07T11:09:14.125Z,29.83
2022-10-07T11:10:14.333Z,29.83
2022-10-07T11:11:14.017Z,29.96
2022-10-07T11:12:14.006Z,31.36
2022-10-07T11:13:14.009Z,32.51
2022-10-07T11:14:14.001Z,34.86
2022-10-07T11:15:13.988Z,34.97
2022-10-07T11:16:14.105Z,35.55
2022-10-07T11:17:14.999Z,33.72
2022-10-07T11:18:13.976Z,33.31
2022-10-07T11:19:13.969Z,32.69
2022-10-07T11:20:13.977Z,31.79
2022-10-07T11:21:13.981Z,31.92
2022-10-07T11:22:13.965Z,32.42
2022-10-07T11:23:14.038Z,31.90
2022-10-07T11:24:13.955Z,32.59
2022-10-07T11:25:13.942Z,31.87
2022-10-07T11:26:13.948Z,31.56
2022-10-07T11:27:13.935Z,30.56
2022-10-07T11:28:13.972Z,30.28
2022-10-07T11:29:13.934Z,31.66
2022-10-07T11:30:13.928Z,30.68
2022-10-07T11:31:14.005Z,31.35
2022-10-07T11:32:13.911Z,30.65
2022-10-07T11:33:13.935Z,30.28
2022-10-07T11:34:13.900Z,31.43
2022-10-07T11:35:13.902Z,30.53
2022-10-07T11:36:13.895Z,29.16
2022-10-07T11:37:13.890Z,29.57
2022-10-07T11:38:13.912Z,31.07
2022-10-07T11:39:13.886Z,29.99
2022-10-07T11:40:13.874Z,30.18
2022-10-07T11:41:13.871Z,30.79
2022-10-07T11:42:13.867Z,30.55
2022-10-07T11:43:13.866Z,30.95
2022-10-07T11:44:13.875Z,30.35
2022-10-07T11:45:13.859Z,30.05
2022-10-07T11:46:13.869Z,29.57
2022-10-07T11:47:13.848Z,30.95
2022-10-07T11:48:13.842Z,29.93
2022-10-07T11:49:13.855Z,30.35
2022-10-07T11:50:13.830Z,29.35
2022-10-07T11:51:13.826Z,30.04
2022-10-07T11:52:13.831Z,30.49
2022-10-07T11:53:13.819Z,31.10
2022-10-07T11:54:13.843Z,31.46
2022-10-07T11:55:13.810Z,31.67
2022-10-07T11:56:13.810Z,32.70
2022-10-07T11:57:13.813Z,32.42
2022-10-07T11:58:13.808Z,31.80
2022-10-07T11:59:13.812Z,31.60
2022-10-07T12:00:13.791Z,32.73
2022-10-07T12:01:13.775Z,33.89
2022-10-07T12:02:15.821Z,33.09
2022-10-07T12:03:14.816Z,34.12
2022-10-07T12:04:13.783Z,34.51
2022-10-07T12:05:13.770Z,33.41
2022-10-07T12:06:13.759Z,32.90
2022-10-07T12:07:13.765Z,32.87
2022-10-07T12:08:13.763Z,32.42
2022-10-07T12:09:13.769Z,32.51
2022-10-07T12:10:13.766Z,31.20
2022-10-07T12:11:13.735Z,31.10
2022-10-07T12:12:13.732Z,31.49
2022-10-07T12:13:13.734Z,31.59
2022-10-07T12:14:13.733Z,30.75
2022-10-07T12:15:13.718Z,30.76
2022-10-07T12:16:13.749Z,32.16
2022-10-07T12:17:13.697Z,32.65
2022-10-07T12:18:13.729Z,33.08
2022-10-07T12:19:13.710Z,33.98
2022-10-07T12:20:13.690Z,34.61
2022-10-07T12:21:13.704Z,34.00
2022-10-07T12:22:13.685Z,34.39
2022-10-07T12:23:13.691Z,34.30
2022-10-07T12:24:13.808Z,34.97
2022-10-07T12:25:13.682Z,34.13
2022-10-07T12:26:13.689Z,32.24
2022-10-07T12:27:13.665Z,33.56
2022-10-07T12:28:13.678Z,32.34
2022-10-07T12:29:13.641Z,32.14
2022-10-07T12:30:13.649Z,31.54
2022-10-07T12:31:13.673Z,31.42
2022-10-07T12:32:13.605Z,32.26
2022-10-07T12:33:14.633Z,32.87
2022-10-07T12:34:13.610Z,33.49
2022-10-07T12:35:13.614Z,34.23
2022-10-07T12:36:13.609Z,32.56
2022-10-07T12:37:13.597Z,34.08
2022-10-07T12:38:13.605Z,33.40
2022-10-07T12:39:13.577Z,35.55
2022-10-07T12:40:13.670Z,38.13
2022-10-07T12:41:13.596Z,38.09
2022-10-07T12:42:13.593Z,38.26
2022-10-07T12:43:13.560Z,37.26
2022-10-07T12:44:13.550Z,37.08
2022-10-07T12:45:13.554Z,38.01
2022-10-07T12:46:13.641Z,37.73
2022-10-07T12:47:18.170Z,37.93
2022-10-07T12:48:14.594Z,37.58
2022-10-07T12:49:13.519Z,36.47
2022-10-07T12:50:13.549Z,35.69
2022-10-07T12:51:13.515Z,36.08
2022-10-07T12:52:13.529Z,35.10